sensor_id;sensor_type;location;lat;lon;timestamp;temperature;humidity
58469;DHT22;44257;44.804;10.220;2023-12-20T00:01:39;2.60;99.90
58469;DHT22;44257;44.804;10.220;2023-12-20T00:04:05;2.60;99.90
58469;DHT22;44257;44.804;10.220;2023-12-20T00:06:31;2.60;99.90
58469;DHT22;44257;44.804;10.220;2023-12-20T00:08:57;2.50;99.90
58469;DHT22;44257;44.804;10.220;2023-12-20T00:11:24;2.50;99.90
58469;DHT22;44257;44.804;10.220;2023-12-20T00:13:50;2.40;99.90
58469;DHT22;44257;44.804;10.220;2023-12-20T00:16:16;2.40;99.90
58469;DHT22;44257;44.804;10.220;2023-12-20T00:18:41;2.40;99.90
58469;DHT22;44257;44.804;10.220;2023-12-20T00:21:07;2.30;99.90
58469;DHT22;44257;44.804;10.220;2023-12-20T00:23:33;2.30;99.90
58469;DHT22;44257;44.804;10.220;2023-12-20T00:25:59;2.50;99.90
58469;DHT22;44257;44.804;10.220;2023-12-20T00:28:25;2.60;99.90
58469;DHT22;44257;44.804;10.220;2023-12-20T00:30:51;2.70;99.90
58469;DHT22;44257;44.804;10.220;2023-12-20T00:33:19;2.70;99.90
58469;DHT22;44257;44.804;10.220;2023-12-20T00:35:49;2.80;99.90
58469;DHT22;44257;44.804;10.220;2023-12-20T00:38:15;2.80;99.90
58469;DHT22;44257;44.804;10.220;2023-12-20T00:40:42;2.70;99.90
58469;DHT22;44257;44.804;10.220;2023-12-20T00:43:08;2.70;99.90
58469;DHT22;44257;44.804;10.220;2023-12-20T00:45:34;2.80;99.90
58469;DHT22;44257;44.804;10.220;2023-12-20T00:48:00;2.70;99.90
58469;DHT22;44257;44.804;10.220;2023-12-20T00:50:26;2.70;99.90
58469;DHT22;44257;44.804;10.220;2023-12-20T00:52:52;2.80;99.90
58469;DHT22;44257;44.804;10.220;2023-12-20T00:55:18;3.00;99.90
58469;DHT22;44257;44.804;10.220;2023-12-20T00:57:44;3.20;99.90
58469;DHT22;44257;44.804;10.220;2023-12-20T01:00:10;3.30;99.90
58469;DHT22;44257;44.804;10.220;2023-12-20T01:02:36;3.30;99.90
58469;DHT22;44257;44.804;10.220;2023-12-20T01:05:02;3.30;99.90
58469;DHT22;44257;44.804;10.220;2023-12-20T01:07:28;3.30;99.90
58469;DHT22;44257;44.804;10.220;2023-12-20T01:09:54;3.30;99.90
58469;DHT22;44257;44.804;10.220;2023-12-20T01:12:20;3.20;99.90
58469;DHT22;44257;44.804;10.220;2023-12-20T01:14:46;3.20;99.90
58469;DHT22;44257;44.804;10.220;2023-12-20T01:17:12;3.20;99.90
58469;DHT22;44257;44.804;10.220;2023-12-20T01:19:38;3.20;99.90
58469;DHT22;44257;44.804;10.220;2023-12-20T01:22:04;3.10;99.90
58469;DHT22;44257;44.804;10.220;2023-12-20T01:24:30;3.10;99.90
58469;DHT22;44257;44.804;10.220;2023-12-20T01:26:56;3.00;99.90
58469;DHT22;44257;44.804;10.220;2023-12-20T01:29:21;2.90;99.90
58469;DHT22;44257;44.804;10.220;2023-12-20T01:31:47;2.90;99.90
58469;DHT22;44257;44.804;10.220;2023-12-20T01:34:13;2.90;99.90
58469;DHT22;44257;44.804;10.220;2023-12-20T01:36:39;2.80;99.90
58469;DHT22;44257;44.804;10.220;2023-12-20T01:39:05;2.70;99.90
58469;DHT22;44257;44.804;10.220;2023-12-20T01:41:31;2.70;99.90
58469;DHT22;44257;44.804;10.220;2023-12-20T01:43:56;2.70;99.90
58469;DHT22;44257;44.804;10.220;2023-12-20T01:46:22;2.50;99.90
58469;DHT22;44257;44.804;10.220;2023-12-20T01:48:49;2.40;99.90
58469;DHT22;44257;44.804;10.220;2023-12-20T01:51:15;2.30;99.90
58469;DHT22;44257;44.804;10.220;2023-12-20T01:53:41;2.20;99.90
58469;DHT22;44257;44.804;10.220;2023-12-20T01:56:08;2.20;99.90
58469;DHT22;44257;44.804;10.220;2023-12-20T01:58:40;2.20;99.90
58469;DHT22;44257;44.804;10.220;2023-12-20T02:01:09;2.10;99.90
58469;DHT22;44257;44.804;10.220;2023-12-20T02:03:35;2.00;99.90
58469;DHT22;44257;44.804;10.220;2023-12-20T02:06:03;2.00;99.90
58469;DHT22;44257;44.804;10.220;2023-12-20T02:08:30;1.90;99.90
58469;DHT22;44257;44.804;10.220;2023-12-20T02:10:56;1.90;99.90
58469;DHT22;44257;44.804;10.220;2023-12-20T02:13:22;1.80;99.90
58469;DHT22;44257;44.804;10.220;2023-12-20T02:15:48;1.80;99.90
58469;DHT22;44257;44.804;10.220;2023-12-20T02:18:14;1.70;99.90
58469;DHT22;44257;44.804;10.220;2023-12-20T02:20:42;1.70;99.90
58469;DHT22;44257;44.804;10.220;2023-12-20T02:23:08;1.70;99.90
58469;DHT22;44257;44.804;10.220;2023-12-20T02:25:34;1.70;99.90
58469;DHT22;44257;44.804;10.220;2023-12-20T02:28:00;1.70;99.90
58469;DHT22;44257;44.804;10.220;2023-12-20T02:30:26;1.60;99.90
58469;DHT22;44257;44.804;10.220;2023-12-20T02:32:52;1.50;99.90
58469;DHT22;44257;44.804;10.220;2023-12-20T02:35:19;1.40;99.90
58469;DHT22;44257;44.804;10.220;2023-12-20T02:37:45;1.40;99.90
58469;DHT22;44257;44.804;10.220;2023-12-20T02:40:11;1.30;99.90
58469;DHT22;44257;44.804;10.220;2023-12-20T02:42:37;1.30;99.90
58469;DHT22;44257;44.804;10.220;2023-12-20T02:45:03;1.30;99.90
58469;DHT22;44257;44.804;10.220;2023-12-20T02:47:29;1.20;99.90
58469;DHT22;44257;44.804;10.220;2023-12-20T02:49:55;1.20;99.90
58469;DHT22;44257;44.804;10.220;2023-12-20T02:52:23;1.20;99.90
58469;DHT22;44257;44.804;10.220;2023-12-20T02:54:49;1.20;99.90
58469;DHT22;44257;44.804;10.220;2023-12-20T02:57:15;1.20;99.90
58469;DHT22;44257;44.804;10.220;2023-12-20T02:59:41;1.20;99.90
58469;DHT22;44257;44.804;10.220;2023-12-20T03:02:07;1.20;99.90
58469;DHT22;44257;44.804;10.220;2023-12-20T03:04:32;1.20;99.90
58469;DHT22;44257;44.804;10.220;2023-12-20T03:06:58;1.20;99.90
58469;DHT22;44257;44.804;10.220;2023-12-20T03:09:24;1.10;99.90
58469;DHT22;44257;44.804;10.220;2023-12-20T03:11:50;1.00;99.90
58469;DHT22;44257;44.804;10.220;2023-12-20T03:14:16;0.90;99.90
58469;DHT22;44257;44.804;10.220;2023-12-20T03:16:46;1.00;99.90
58469;DHT22;44257;44.804;10.220;2023-12-20T03:19:12;0.90;99.90
58469;DHT22;44257;44.804;10.220;2023-12-20T03:21:37;0.90;99.90
58469;DHT22;44257;44.804;10.220;2023-12-20T03:24:04;1.00;99.90
58469;DHT22;44257;44.804;10.220;2023-12-20T03:26:29;1.00;99.90
58469;DHT22;44257;44.804;10.220;2023-12-20T03:28:55;1.00;99.90
58469;DHT22;44257;44.804;10.220;2023-12-20T03:31:21;0.90;99.90
58469;DHT22;44257;44.804;10.220;2023-12-20T03:33:47;0.80;99.90
58469;DHT22;44257;44.804;10.220;2023-12-20T03:36:13;0.70;99.90
58469;DHT22;44257;44.804;10.220;2023-12-20T03:38:39;0.80;99.90
58469;DHT22;44257;44.804;10.220;2023-12-20T03:41:06;0.80;99.90
58469;DHT22;44257;44.804;10.220;2023-12-20T03:43:32;0.80;99.90
58469;DHT22;44257;44.804;10.220;2023-12-20T03:45:58;0.80;99.90
58469;DHT22;44257;44.804;10.220;2023-12-20T03:48:25;0.70;99.90
58469;DHT22;44257;44.804;10.220;2023-12-20T03:50:51;0.70;99.90
58469;DHT22;44257;44.804;10.220;2023-12-20T03:53:17;0.90;99.90
58469;DHT22;44257;44.804;10.220;2023-12-20T03:55:43;1.00;99.90
58469;DHT22;44257;44.804;10.220;2023-12-20T03:58:09;1.10;99.90
58469;DHT22;44257;44.804;10.220;2023-12-20T04:00:35;1.20;99.90
58469;DHT22;44257;44.804;10.220;2023-12-20T04:03:01;1.20;99.90
58469;DHT22;44257;44.804;10.220;2023-12-20T04:05:27;1.20;99.90
58469;DHT22;44257;44.804;10.220;2023-12-20T04:07:52;1.10;99.90
58469;DHT22;44257;44.804;10.220;2023-12-20T04:10:18;1.10;99.90
58469;DHT22;44257;44.804;10.220;2023-12-20T04:12:44;1.00;99.90
58469;DHT22;44257;44.804;10.220;2023-12-20T04:15:10;1.00;99.90
58469;DHT22;44257;44.804;10.220;2023-12-20T04:17:37;0.90;99.90
58469;DHT22;44257;44.804;10.220;2023-12-20T04:20:03;0.90;99.90
58469;DHT22;44257;44.804;10.220;2023-12-20T04:22:29;0.90;99.90
58469;DHT22;44257;44.804;10.220;2023-12-20T04:24:55;0.80;99.90
58469;DHT22;44257;44.804;10.220;2023-12-20T04:27:21;0.90;99.90
58469;DHT22;44257;44.804;10.220;2023-12-20T04:29:47;0.80;99.90
58469;DHT22;44257;44.804;10.220;2023-12-20T04:32:13;0.70;99.90
58469;DHT22;44257;44.804;10.220;2023-12-20T04:34:39;0.70;99.90
58469;DHT22;44257;44.804;10.220;2023-12-20T04:37:05;0.70;99.90
58469;DHT22;44257;44.804;10.220;2023-12-20T04:39:31;0.70;99.90
58469;DHT22;44257;44.804;10.220;2023-12-20T04:41:57;0.70;99.90
58469;DHT22;44257;44.804;10.220;2023-12-20T04:44:22;0.60;99.90
58469;DHT22;44257;44.804;10.220;2023-12-20T04:46:49;0.60;99.90
58469;DHT22;44257;44.804;10.220;2023-12-20T04:49:15;0.70;99.90
58469;DHT22;44257;44.804;10.220;2023-12-20T04:51:40;0.60;99.90
58469;DHT22;44257;44.804;10.220;2023-12-20T04:54:06;0.50;99.90
58469;DHT22;44257;44.804;10.220;2023-12-20T04:56:32;0.60;99.90
58469;DHT22;44257;44.804;10.220;2023-12-20T04:58:58;0.50;99.90
58469;DHT22;44257;44.804;10.220;2023-12-20T05:01:24;0.60;99.90
58469;DHT22;44257;44.804;10.220;2023-12-20T05:03:50;0.60;99.90
58469;DHT22;44257;44.804;10.220;2023-12-20T05:06:16;0.60;99.90
58469;DHT22;44257;44.804;10.220;2023-12-20T05:08:41;0.70;99.90
58469;DHT22;44257;44.804;10.220;2023-12-20T05:11:07;0.80;99.90
58469;DHT22;44257;44.804;10.220;2023-12-20T05:13:33;0.80;99.90
58469;DHT22;44257;44.804;10.220;2023-12-20T05:15:59;0.90;99.90
58469;DHT22;44257;44.804;10.220;2023-12-20T05:18:25;1.00;99.90
58469;DHT22;44257;44.804;10.220;2023-12-20T05:20:51;1.10;99.90
58469;DHT22;44257;44.804;10.220;2023-12-20T05:23:17;1.10;99.90
58469;DHT22;44257;44.804;10.220;2023-12-20T05:25:43;1.10;99.90
58469;DHT22;44257;44.804;10.220;2023-12-20T05:28:09;1.10;99.90
58469;DHT22;44257;44.804;10.220;2023-12-20T05:30:35;1.10;99.90
58469;DHT22;44257;44.804;10.220;2023-12-20T05:33:01;1.10;99.90
58469;DHT22;44257;44.804;10.220;2023-12-20T05:35:27;1.20;99.90
58469;DHT22;44257;44.804;10.220;2023-12-20T05:37:53;1.20;99.90
58469;DHT22;44257;44.804;10.220;2023-12-20T05:40:18;1.30;99.90
58469;DHT22;44257;44.804;10.220;2023-12-20T05:42:44;1.40;99.90
58469;DHT22;44257;44.804;10.220;2023-12-20T05:45:10;1.50;99.90
58469;DHT22;44257;44.804;10.220;2023-12-20T05:47:36;1.60;99.90
58469;DHT22;44257;44.804;10.220;2023-12-20T05:50:02;1.70;99.90
58469;DHT22;44257;44.804;10.220;2023-12-20T05:52:29;1.80;99.90
58469;DHT22;44257;44.804;10.220;2023-12-20T05:54:55;1.70;99.90
58469;DHT22;44257;44.804;10.220;2023-12-20T05:57:23;1.60;99.90
58469;DHT22;44257;44.804;10.220;2023-12-20T05:59:49;1.60;99.90
58469;DHT22;44257;44.804;10.220;2023-12-20T06:02:15;1.60;99.90
58469;DHT22;44257;44.804;10.220;2023-12-20T06:04:44;1.60;99.90
58469;DHT22;44257;44.804;10.220;2023-12-20T06:07:13;1.60;99.90
58469;DHT22;44257;44.804;10.220;2023-12-20T06:09:40;1.60;99.90
58469;DHT22;44257;44.804;10.220;2023-12-20T06:12:07;1.60;99.90
58469;DHT22;44257;44.804;10.220;2023-12-20T06:14:36;1.70;99.90
58469;DHT22;44257;44.804;10.220;2023-12-20T06:17:02;1.70;99.90
58469;DHT22;44257;44.804;10.220;2023-12-20T06:19:28;1.70;99.90
58469;DHT22;44257;44.804;10.220;2023-12-20T06:21:54;1.70;99.90
58469;DHT22;44257;44.804;10.220;2023-12-20T06:24:20;1.70;99.90
58469;DHT22;44257;44.804;10.220;2023-12-20T06:26:47;1.80;99.90
58469;DHT22;44257;44.804;10.220;2023-12-20T06:29:13;1.80;99.90
58469;DHT22;44257;44.804;10.220;2023-12-20T06:31:38;1.90;99.90
58469;DHT22;44257;44.804;10.220;2023-12-20T06:34:04;2.00;99.90
58469;DHT22;44257;44.804;10.220;2023-12-20T06:36:30;2.10;99.90
58469;DHT22;44257;44.804;10.220;2023-12-20T06:38:56;2.10;99.90
58469;DHT22;44257;44.804;10.220;2023-12-20T06:41:22;2.00;99.90
58469;DHT22;44257;44.804;10.220;2023-12-20T06:43:50;2.00;99.90
58469;DHT22;44257;44.804;10.220;2023-12-20T06:46:16;2.00;99.90
58469;DHT22;44257;44.804;10.220;2023-12-20T06:48:42;1.90;99.90
58469;DHT22;44257;44.804;10.220;2023-12-20T06:51:12;2.00;99.90
58469;DHT22;44257;44.804;10.220;2023-12-20T06:53:38;2.00;99.90
58469;DHT22;44257;44.804;10.220;2023-12-20T06:56:04;2.00;99.90
58469;DHT22;44257;44.804;10.220;2023-12-20T06:58:30;2.10;99.90
58469;DHT22;44257;44.804;10.220;2023-12-20T07:00:56;2.10;99.90
58469;DHT22;44257;44.804;10.220;2023-12-20T07:03:22;2.20;99.90
58469;DHT22;44257;44.804;10.220;2023-12-20T07:05:47;2.20;99.90
58469;DHT22;44257;44.804;10.220;2023-12-20T07:08:13;2.30;99.90
58469;DHT22;44257;44.804;10.220;2023-12-20T07:10:41;2.30;99.90
58469;DHT22;44257;44.804;10.220;2023-12-20T07:13:07;2.50;99.90
58469;DHT22;44257;44.804;10.220;2023-12-20T07:15:33;2.50;99.90
58469;DHT22;44257;44.804;10.220;2023-12-20T07:17:59;2.60;99.90
58469;DHT22;44257;44.804;10.220;2023-12-20T07:20:26;2.70;99.90
58469;DHT22;44257;44.804;10.220;2023-12-20T07:22:52;2.80;99.90
58469;DHT22;44257;44.804;10.220;2023-12-20T07:25:18;2.90;99.90
58469;DHT22;44257;44.804;10.220;2023-12-20T07:27:43;3.00;99.90
58469;DHT22;44257;44.804;10.220;2023-12-20T07:30:10;3.00;99.90
58469;DHT22;44257;44.804;10.220;2023-12-20T07:32:36;3.00;99.90
58469;DHT22;44257;44.804;10.220;2023-12-20T07:35:02;3.00;99.90
58469;DHT22;44257;44.804;10.220;2023-12-20T07:37:28;3.00;99.90
58469;DHT22;44257;44.804;10.220;2023-12-20T07:39:54;3.00;99.90
58469;DHT22;44257;44.804;10.220;2023-12-20T07:42:20;3.10;99.90
58469;DHT22;44257;44.804;10.220;2023-12-20T07:44:47;3.10;99.90
58469;DHT22;44257;44.804;10.220;2023-12-20T07:47:13;3.20;99.90
58469;DHT22;44257;44.804;10.220;2023-12-20T07:49:42;3.20;99.90
58469;DHT22;44257;44.804;10.220;2023-12-20T07:52:08;3.30;99.90
58469;DHT22;44257;44.804;10.220;2023-12-20T07:54:36;3.40;99.90
58469;DHT22;44257;44.804;10.220;2023-12-20T07:57:02;3.50;99.90
58469;DHT22;44257;44.804;10.220;2023-12-20T07:59:27;3.60;99.90
58469;DHT22;44257;44.804;10.220;2023-12-20T08:01:53;3.60;99.90
58469;DHT22;44257;44.804;10.220;2023-12-20T08:04:19;3.60;99.90
58469;DHT22;44257;44.804;10.220;2023-12-20T08:06:45;3.70;99.90
58469;DHT22;44257;44.804;10.220;2023-12-20T08:09:11;3.80;99.90
58469;DHT22;44257;44.804;10.220;2023-12-20T08:11:37;3.80;99.90
58469;DHT22;44257;44.804;10.220;2023-12-20T08:14:03;3.80;99.90
58469;DHT22;44257;44.804;10.220;2023-12-20T08:16:29;3.90;99.90
58469;DHT22;44257;44.804;10.220;2023-12-20T08:18:55;3.90;99.90
58469;DHT22;44257;44.804;10.220;2023-12-20T08:21:21;4.00;99.90
58469;DHT22;44257;44.804;10.220;2023-12-20T08:23:48;4.00;99.90
58469;DHT22;44257;44.804;10.220;2023-12-20T08:26:19;4.10;99.90
58469;DHT22;44257;44.804;10.220;2023-12-20T08:28:46;4.10;99.90
58469;DHT22;44257;44.804;10.220;2023-12-20T08:31:16;4.20;99.90
58469;DHT22;44257;44.804;10.220;2023-12-20T08:33:44;4.20;99.90
58469;DHT22;44257;44.804;10.220;2023-12-20T08:36:10;4.30;99.90
58469;DHT22;44257;44.804;10.220;2023-12-20T08:38:36;4.40;99.90
58469;DHT22;44257;44.804;10.220;2023-12-20T08:41:02;4.40;99.90
58469;DHT22;44257;44.804;10.220;2023-12-20T08:43:31;4.50;99.90
58469;DHT22;44257;44.804;10.220;2023-12-20T08:45:57;4.70;99.90
58469;DHT22;44257;44.804;10.220;2023-12-20T08:48:23;4.80;99.90
58469;DHT22;44257;44.804;10.220;2023-12-20T08:50:49;4.90;99.90
58469;DHT22;44257;44.804;10.220;2023-12-20T08:53:17;4.90;99.90
58469;DHT22;44257;44.804;10.220;2023-12-20T08:55:43;5.10;99.90
58469;DHT22;44257;44.804;10.220;2023-12-20T08:58:09;5.10;99.90
58469;DHT22;44257;44.804;10.220;2023-12-20T09:00:35;5.30;99.90
58469;DHT22;44257;44.804;10.220;2023-12-20T09:03:02;5.40;99.90
58469;DHT22;44257;44.804;10.220;2023-12-20T09:05:28;5.50;99.90
58469;DHT22;44257;44.804;10.220;2023-12-20T09:07:54;5.60;99.90
58469;DHT22;44257;44.804;10.220;2023-12-20T09:10:20;5.70;99.90
58469;DHT22;44257;44.804;10.220;2023-12-20T09:12:49;5.90;99.90
58469;DHT22;44257;44.804;10.220;2023-12-20T09:15:15;5.90;99.90
58469;DHT22;44257;44.804;10.220;2023-12-20T09:17:41;6.00;99.90
58469;DHT22;44257;44.804;10.220;2023-12-20T09:20:07;6.10;99.90
58469;DHT22;44257;44.804;10.220;2023-12-20T09:22:34;6.10;99.90
58469;DHT22;44257;44.804;10.220;2023-12-20T09:25:00;6.20;99.90
58469;DHT22;44257;44.804;10.220;2023-12-20T09:27:27;6.20;99.90
58469;DHT22;44257;44.804;10.220;2023-12-20T09:29:53;6.20;99.90
58469;DHT22;44257;44.804;10.220;2023-12-20T09:32:19;6.30;99.90
58469;DHT22;44257;44.804;10.220;2023-12-20T09:34:48;6.40;99.90
58469;DHT22;44257;44.804;10.220;2023-12-20T09:37:14;6.50;99.90
58469;DHT22;44257;44.804;10.220;2023-12-20T09:39:40;6.50;99.90
58469;DHT22;44257;44.804;10.220;2023-12-20T09:42:07;6.60;99.90
58469;DHT22;44257;44.804;10.220;2023-12-20T09:44:33;6.60;99.90
58469;DHT22;44257;44.804;10.220;2023-12-20T09:47:03;6.70;99.90
58469;DHT22;44257;44.804;10.220;2023-12-20T09:49:30;6.80;99.90
58469;DHT22;44257;44.804;10.220;2023-12-20T09:51:56;7.00;99.90
58469;DHT22;44257;44.804;10.220;2023-12-20T09:54:23;7.00;99.90
58469;DHT22;44257;44.804;10.220;2023-12-20T09:56:50;7.10;99.90
58469;DHT22;44257;44.804;10.220;2023-12-20T09:59:16;7.20;99.90
58469;DHT22;44257;44.804;10.220;2023-12-20T10:01:42;7.30;99.90
58469;DHT22;44257;44.804;10.220;2023-12-20T10:04:10;7.40;99.90
58469;DHT22;44257;44.804;10.220;2023-12-20T10:06:42;7.50;99.90
58469;DHT22;44257;44.804;10.220;2023-12-20T10:09:09;7.50;99.90
58469;DHT22;44257;44.804;10.220;2023-12-20T10:11:39;7.60;99.90
58469;DHT22;44257;44.804;10.220;2023-12-20T10:14:06;7.60;99.90
58469;DHT22;44257;44.804;10.220;2023-12-20T10:16:32;7.60;99.90
58469;DHT22;44257;44.804;10.220;2023-12-20T10:19:00;7.60;99.90
58469;DHT22;44257;44.804;10.220;2023-12-20T10:21:26;7.70;99.90
58469;DHT22;44257;44.804;10.220;2023-12-20T10:23:56;7.80;99.90
58469;DHT22;44257;44.804;10.220;2023-12-20T10:26:24;7.70;99.90
58469;DHT22;44257;44.804;10.220;2023-12-20T10:28:54;7.80;99.90
58469;DHT22;44257;44.804;10.220;2023-12-20T10:31:27;7.80;99.90
58469;DHT22;44257;44.804;10.220;2023-12-20T10:33:59;7.80;99.90
58469;DHT22;44257;44.804;10.220;2023-12-20T10:36:26;7.80;99.90
58469;DHT22;44257;44.804;10.220;2023-12-20T10:38:53;7.90;99.90
58469;DHT22;44257;44.804;10.220;2023-12-20T10:41:28;8.00;99.90
58469;DHT22;44257;44.804;10.220;2023-12-20T10:44:04;8.10;99.90
58469;DHT22;44257;44.804;10.220;2023-12-20T10:46:33;8.20;99.90
58469;DHT22;44257;44.804;10.220;2023-12-20T10:49:02;8.30;99.90
58469;DHT22;44257;44.804;10.220;2023-12-20T10:51:28;8.40;99.90
58469;DHT22;44257;44.804;10.220;2023-12-20T10:53:56;8.50;99.90
58469;DHT22;44257;44.804;10.220;2023-12-20T10:56:23;8.60;99.90
58469;DHT22;44257;44.804;10.220;2023-12-20T10:58:52;8.70;99.90
58469;DHT22;44257;44.804;10.220;2023-12-20T11:01:19;8.80;99.90
58469;DHT22;44257;44.804;10.220;2023-12-20T11:03:52;8.80;99.90
58469;DHT22;44257;44.804;10.220;2023-12-20T11:06:35;8.90;99.90
58469;DHT22;44257;44.804;10.220;2023-12-20T11:09:17;8.90;99.90
58469;DHT22;44257;44.804;10.220;2023-12-20T11:14:47;9.00;99.90
58469;DHT22;44257;44.804;10.220;2023-12-20T11:17:14;9.10;99.90
58469;DHT22;44257;44.804;10.220;2023-12-20T11:22:30;9.20;99.90
58469;DHT22;44257;44.804;10.220;2023-12-20T11:25:10;9.10;99.90
58469;DHT22;44257;44.804;10.220;2023-12-20T11:27:43;9.10;99.90
58469;DHT22;44257;44.804;10.220;2023-12-20T11:30:09;9.20;99.90
58469;DHT22;44257;44.804;10.220;2023-12-20T11:32:36;9.30;99.90
58469;DHT22;44257;44.804;10.220;2023-12-20T11:37:38;9.40;99.90
58469;DHT22;44257;44.804;10.220;2023-12-20T11:40:16;9.40;99.90
58469;DHT22;44257;44.804;10.220;2023-12-20T11:42:44;9.40;99.90
58469;DHT22;44257;44.804;10.220;2023-12-20T11:45:11;9.40;99.90
58469;DHT22;44257;44.804;10.220;2023-12-20T11:47:44;9.50;99.90
58469;DHT22;44257;44.804;10.220;2023-12-20T11:50:11;9.60;99.90
58469;DHT22;44257;44.804;10.220;2023-12-20T11:52:37;9.70;99.90
58469;DHT22;44257;44.804;10.220;2023-12-20T11:55:03;9.70;99.90
58469;DHT22;44257;44.804;10.220;2023-12-20T11:57:30;9.80;99.90
58469;DHT22;44257;44.804;10.220;2023-12-20T11:59:56;9.90;99.90
58469;DHT22;44257;44.804;10.220;2023-12-20T12:02:22;9.90;99.90
58469;DHT22;44257;44.804;10.220;2023-12-20T12:04:49;9.90;99.90
58469;DHT22;44257;44.804;10.220;2023-12-20T12:07:18;9.90;99.90
58469;DHT22;44257;44.804;10.220;2023-12-20T12:09:45;10.00;99.90
58469;DHT22;44257;44.804;10.220;2023-12-20T12:12:12;10.00;99.90
58469;DHT22;44257;44.804;10.220;2023-12-20T12:14:39;10.00;99.90
58469;DHT22;44257;44.804;10.220;2023-12-20T12:17:13;9.90;99.90
58469;DHT22;44257;44.804;10.220;2023-12-20T12:19:40;9.90;99.90
58469;DHT22;44257;44.804;10.220;2023-12-20T12:22:07;9.80;99.90
58469;DHT22;44257;44.804;10.220;2023-12-20T12:24:46;9.80;99.90
58469;DHT22;44257;44.804;10.220;2023-12-20T12:27:15;9.70;99.90
58469;DHT22;44257;44.804;10.220;2023-12-20T12:30:03;9.70;99.90
58469;DHT22;44257;44.804;10.220;2023-12-20T12:32:29;9.60;99.90
58469;DHT22;44257;44.804;10.220;2023-12-20T12:34:55;9.50;99.90
58469;DHT22;44257;44.804;10.220;2023-12-20T12:37:22;9.50;99.90
58469;DHT22;44257;44.804;10.220;2023-12-20T12:39:49;9.50;99.90
58469;DHT22;44257;44.804;10.220;2023-12-20T12:42:15;9.50;99.90
58469;DHT22;44257;44.804;10.220;2023-12-20T12:44:41;9.40;99.90
58469;DHT22;44257;44.804;10.220;2023-12-20T12:47:07;9.40;99.90
58469;DHT22;44257;44.804;10.220;2023-12-20T12:49:33;9.50;99.90
58469;DHT22;44257;44.804;10.220;2023-12-20T12:51:59;9.40;99.90
58469;DHT22;44257;44.804;10.220;2023-12-20T12:54:25;9.30;99.90
58469;DHT22;44257;44.804;10.220;2023-12-20T12:56:51;9.30;99.90
58469;DHT22;44257;44.804;10.220;2023-12-20T12:59:18;9.30;99.90
58469;DHT22;44257;44.804;10.220;2023-12-20T13:01:44;9.30;99.90
58469;DHT22;44257;44.804;10.220;2023-12-20T13:04:10;9.20;99.90
58469;DHT22;44257;44.804;10.220;2023-12-20T13:06:39;9.20;99.90
58469;DHT22;44257;44.804;10.220;2023-12-20T13:09:07;9.10;99.90
58469;DHT22;44257;44.804;10.220;2023-12-20T13:11:35;9.10;99.90
58469;DHT22;44257;44.804;10.220;2023-12-20T13:14:01;9.10;99.90
58469;DHT22;44257;44.804;10.220;2023-12-20T13:16:29;9.10;99.90
58469;DHT22;44257;44.804;10.220;2023-12-20T13:18:55;9.10;99.90
58469;DHT22;44257;44.804;10.220;2023-12-20T13:21:21;9.10;99.90
58469;DHT22;44257;44.804;10.220;2023-12-20T13:23:47;9.10;99.90
58469;DHT22;44257;44.804;10.220;2023-12-20T13:26:14;9.10;99.90
58469;DHT22;44257;44.804;10.220;2023-12-20T13:28:39;9.00;99.90
58469;DHT22;44257;44.804;10.220;2023-12-20T13:31:05;8.90;99.90
58469;DHT22;44257;44.804;10.220;2023-12-20T13:33:31;8.80;99.90
58469;DHT22;44257;44.804;10.220;2023-12-20T13:35:57;8.70;99.90
58469;DHT22;44257;44.804;10.220;2023-12-20T13:38:24;8.80;99.90
58469;DHT22;44257;44.804;10.220;2023-12-20T13:40:50;8.70;99.90
58469;DHT22;44257;44.804;10.220;2023-12-20T13:43:15;8.80;99.90
58469;DHT22;44257;44.804;10.220;2023-12-20T13:45:46;8.80;99.90
58469;DHT22;44257;44.804;10.220;2023-12-20T13:48:12;8.80;99.90
58469;DHT22;44257;44.804;10.220;2023-12-20T13:50:38;8.80;99.90
58469;DHT22;44257;44.804;10.220;2023-12-20T13:53:04;8.80;99.90
58469;DHT22;44257;44.804;10.220;2023-12-20T13:55:30;8.80;99.90
58469;DHT22;44257;44.804;10.220;2023-12-20T13:57:56;8.90;99.90
58469;DHT22;44257;44.804;10.220;2023-12-20T14:00:23;8.90;99.90
58469;DHT22;44257;44.804;10.220;2023-12-20T14:02:49;8.90;99.90
58469;DHT22;44257;44.804;10.220;2023-12-20T14:05:16;8.90;99.90
58469;DHT22;44257;44.804;10.220;2023-12-20T14:07:45;8.80;99.90
58469;DHT22;44257;44.804;10.220;2023-12-20T14:10:15;8.70;99.90
58469;DHT22;44257;44.804;10.220;2023-12-20T14:12:41;8.60;99.90
58469;DHT22;44257;44.804;10.220;2023-12-20T14:15:07;8.50;99.90
58469;DHT22;44257;44.804;10.220;2023-12-20T14:17:40;8.50;99.90
58469;DHT22;44257;44.804;10.220;2023-12-20T14:20:09;8.40;99.90
58469;DHT22;44257;44.804;10.220;2023-12-20T14:22:35;8.40;99.90
58469;DHT22;44257;44.804;10.220;2023-12-20T14:25:01;8.40;99.90
58469;DHT22;44257;44.804;10.220;2023-12-20T14:27:27;8.40;99.90
58469;DHT22;44257;44.804;10.220;2023-12-20T14:29:54;8.30;99.90
58469;DHT22;44257;44.804;10.220;2023-12-20T14:32:20;8.30;99.90
58469;DHT22;44257;44.804;10.220;2023-12-20T14:34:46;8.20;99.90
58469;DHT22;44257;44.804;10.220;2023-12-20T14:37:12;8.00;99.90
58469;DHT22;44257;44.804;10.220;2023-12-20T14:39:38;7.90;99.90
58469;DHT22;44257;44.804;10.220;2023-12-20T14:42:10;7.80;99.90
58469;DHT22;44257;44.804;10.220;2023-12-20T14:44:42;7.70;99.90
58469;DHT22;44257;44.804;10.220;2023-12-20T14:47:08;7.60;99.90
58469;DHT22;44257;44.804;10.220;2023-12-20T14:49:34;7.50;99.90
58469;DHT22;44257;44.804;10.220;2023-12-20T14:52:00;7.30;99.90
58469;DHT22;44257;44.804;10.220;2023-12-20T14:54:26;7.20;99.90
58469;DHT22;44257;44.804;10.220;2023-12-20T14:56:52;7.00;99.90
58469;DHT22;44257;44.804;10.220;2023-12-20T14:59:17;6.90;99.90
58469;DHT22;44257;44.804;10.220;2023-12-20T15:01:44;6.80;99.90
58469;DHT22;44257;44.804;10.220;2023-12-20T15:04:10;6.60;99.90
58469;DHT22;44257;44.804;10.220;2023-12-20T15:06:36;6.50;99.90
58469;DHT22;44257;44.804;10.220;2023-12-20T15:09:02;6.40;99.90
58469;DHT22;44257;44.804;10.220;2023-12-20T15:11:30;6.20;99.90
58469;DHT22;44257;44.804;10.220;2023-12-20T15:13:57;6.10;99.90
58469;DHT22;44257;44.804;10.220;2023-12-20T15:16:24;6.00;99.90
58469;DHT22;44257;44.804;10.220;2023-12-20T15:18:52;5.90;99.90
58469;DHT22;44257;44.804;10.220;2023-12-20T15:21:19;5.80;99.90
58469;DHT22;44257;44.804;10.220;2023-12-20T15:23:45;5.80;99.90
58469;DHT22;44257;44.804;10.220;2023-12-20T15:26:20;5.70;99.90
58469;DHT22;44257;44.804;10.220;2023-12-20T15:28:46;5.70;99.90
58469;DHT22;44257;44.804;10.220;2023-12-20T15:31:11;5.60;99.90
58469;DHT22;44257;44.804;10.220;2023-12-20T15:33:40;5.40;99.90
58469;DHT22;44257;44.804;10.220;2023-12-20T15:36:06;5.30;99.90